sensor_id;sensor_type;location;lat;lon;timestamp;temperature;humidity
26909;DHT22;14477;51.038;4.588;2022-09-09T00:03:44;16.50;88.00
26909;DHT22;14477;51.038;4.588;2022-09-09T00:06:23;16.50;88.20
26909;DHT22;14477;51.038;4.588;2022-09-09T00:09:16;16.50;88.00
26909;DHT22;14477;51.038;4.588;2022-09-09T00:12:02;16.50;88.30
26909;DHT22;14477;51.038;4.588;2022-09-09T00:17:06;16.40;88.30
26909;DHT22;14477;51.038;4.588;2022-09-09T00:20:12;16.40;88.40
26909;DHT22;14477;51.038;4.588;2022-09-09T00:22:45;16.40;89.50
26909;DHT22;14477;51.038;4.588;2022-09-09T00:25:26;16.40;88.50
26909;DHT22;14477;51.038;4.588;2022-09-09T00:27:54;16.40;88.60
26909;DHT22;14477;51.038;4.588;2022-09-09T00:30:24;16.40;88.60
26909;DHT22;14477;51.038;4.588;2022-09-09T00:32:54;16.40;88.70
26909;DHT22;14477;51.038;4.588;2022-09-09T00:43:35;16.40;89.50
26909;DHT22;14477;51.038;4.588;2022-09-09T00:51:48;16.40;89.80
26909;DHT22;14477;51.038;4.588;2022-09-09T00:54:40;16.50;89.90
26909;DHT22;14477;51.038;4.588;2022-09-09T01:02:39;16.50;90.00
26909;DHT22;14477;51.038;4.588;2022-09-09T01:05:17;16.50;90.00
26909;DHT22;14477;51.038;4.588;2022-09-09T01:07:47;16.50;90.10
26909;DHT22;14477;51.038;4.588;2022-09-09T01:10:29;16.50;90.10
26909;DHT22;14477;51.038;4.588;2022-09-09T01:13:00;16.50;90.20
26909;DHT22;14477;51.038;4.588;2022-09-09T01:15:30;16.50;90.20
26909;DHT22;14477;51.038;4.588;2022-09-09T01:18:11;16.60;90.20
26909;DHT22;14477;51.038;4.588;2022-09-09T01:26:50;16.50;90.20
26909;DHT22;14477;51.038;4.588;2022-09-09T01:29:12;16.50;90.30
26909;DHT22;14477;51.038;4.588;2022-09-09T01:31:41;16.60;90.30
26909;DHT22;14477;51.038;4.588;2022-09-09T01:34:17;16.50;90.20
26909;DHT22;14477;51.038;4.588;2022-09-09T01:37:03;16.50;90.30
26909;DHT22;14477;51.038;4.588;2022-09-09T01:39:31;16.60;90.40
26909;DHT22;14477;51.038;4.588;2022-09-09T01:41:57;16.50;90.20
26909;DHT22;14477;51.038;4.588;2022-09-09T01:44:24;16.50;90.30
26909;DHT22;14477;51.038;4.588;2022-09-09T01:46:50;16.50;90.30
26909;DHT22;14477;51.038;4.588;2022-09-09T01:49:17;16.50;90.30
26909;DHT22;14477;51.038;4.588;2022-09-09T01:51:43;16.50;90.30
26909;DHT22;14477;51.038;4.588;2022-09-09T01:54:11;16.50;90.30
26909;DHT22;14477;51.038;4.588;2022-09-09T02:02:18;16.50;90.30
26909;DHT22;14477;51.038;4.588;2022-09-09T02:04:48;16.50;90.40
26909;DHT22;14477;51.038;4.588;2022-09-09T02:10:24;16.40;90.40
26909;DHT22;14477;51.038;4.588;2022-09-09T02:13:13;16.40;90.40
26909;DHT22;14477;51.038;4.588;2022-09-09T02:18:22;16.40;90.50
26909;DHT22;14477;51.038;4.588;2022-09-09T02:20:50;16.30;90.50
26909;DHT22;14477;51.038;4.588;2022-09-09T02:23:17;16.30;90.50
26909;DHT22;14477;51.038;4.588;2022-09-09T02:25:44;16.30;90.90
26909;DHT22;14477;51.038;4.588;2022-09-09T02:28:12;16.30;90.60
26909;DHT22;14477;51.038;4.588;2022-09-09T02:30:41;16.30;90.60
26909;DHT22;14477;51.038;4.588;2022-09-09T02:33:09;16.30;90.60
26909;DHT22;14477;51.038;4.588;2022-09-09T02:35:38;16.30;90.70
26909;DHT22;14477;51.038;4.588;2022-09-09T02:38:08;16.30;90.70
26909;DHT22;14477;51.038;4.588;2022-09-09T02:40:35;16.30;90.70
26909;DHT22;14477;51.038;4.588;2022-09-09T02:43:01;16.30;90.70
26909;DHT22;14477;51.038;4.588;2022-09-09T02:45:35;16.30;90.80
26909;DHT22;14477;51.038;4.588;2022-09-09T02:49:06;16.30;90.80
26909;DHT22;14477;51.038;4.588;2022-09-09T02:51:08;16.30;90.80
26909;DHT22;14477;51.038;4.588;2022-09-09T02:53:49;16.30;90.90
26909;DHT22;14477;51.038;4.588;2022-09-09T02:56:20;16.20;90.90
26909;DHT22;14477;51.038;4.588;2022-09-09T02:58:47;16.30;90.90
26909;DHT22;14477;51.038;4.588;2022-09-09T03:01:13;16.20;90.90
26909;DHT22;14477;51.038;4.588;2022-09-09T03:03:39;16.20;90.90
26909;DHT22;14477;51.038;4.588;2022-09-09T03:06:06;16.20;91.00
26909;DHT22;14477;51.038;4.588;2022-09-09T03:08:32;16.20;91.30
26909;DHT22;14477;51.038;4.588;2022-09-09T03:11:01;16.20;91.20
26909;DHT22;14477;51.038;4.588;2022-09-09T03:13:27;16.30;91.30
26909;DHT22;14477;51.038;4.588;2022-09-09T03:15:52;16.30;91.30
26909;DHT22;14477;51.038;4.588;2022-09-09T03:18:18;16.30;91.30
26909;DHT22;14477;51.038;4.588;2022-09-09T03:20:43;16.30;91.30
26909;DHT22;14477;51.038;4.588;2022-09-09T03:23:11;16.30;91.20
26909;DHT22;14477;51.038;4.588;2022-09-09T03:25:39;16.30;91.20
26909;DHT22;14477;51.038;4.588;2022-09-09T03:28:04;16.30;91.20
26909;DHT22;14477;51.038;4.588;2022-09-09T03:30:30;16.30;91.20
26909;DHT22;14477;51.038;4.588;2022-09-09T03:32:56;16.30;91.30
26909;DHT22;14477;51.038;4.588;2022-09-09T03:35:22;16.30;91.40
26909;DHT22;14477;51.038;4.588;2022-09-09T03:37:48;16.30;91.40
26909;DHT22;14477;51.038;4.588;2022-09-09T03:40:14;16.30;91.40
26909;DHT22;14477;51.038;4.588;2022-09-09T03:42:40;16.30;91.40
26909;DHT22;14477;51.038;4.588;2022-09-09T03:45:07;16.30;91.60
26909;DHT22;14477;51.038;4.588;2022-09-09T03:47:34;16.30;91.60
26909;DHT22;14477;51.038;4.588;2022-09-09T03:50:00;16.30;91.60
26909;DHT22;14477;51.038;4.588;2022-09-09T03:52:25;16.30;91.60
26909;DHT22;14477;51.038;4.588;2022-09-09T03:54:52;16.30;91.60
26909;DHT22;14477;51.038;4.588;2022-09-09T03:57:19;16.30;91.60
26909;DHT22;14477;51.038;4.588;2022-09-09T03:59:45;16.40;91.70
26909;DHT22;14477;51.038;4.588;2022-09-09T04:02:11;16.40;91.70
26909;DHT22;14477;51.038;4.588;2022-09-09T04:04:36;16.40;91.70
26909;DHT22;14477;51.038;4.588;2022-09-09T04:07:02;16.30;91.70
26909;DHT22;14477;51.038;4.588;2022-09-09T04:09:28;16.40;91.70
26909;DHT22;14477;51.038;4.588;2022-09-09T04:11:54;16.40;92.00
26909;DHT22;14477;51.038;4.588;2022-09-09T04:14:21;16.40;91.70
26909;DHT22;14477;51.038;4.588;2022-09-09T04:16:47;16.40;91.70
26909;DHT22;14477;51.038;4.588;2022-09-09T04:19:13;16.40;91.70
26909;DHT22;14477;51.038;4.588;2022-09-09T04:21:40;16.40;91.70
26909;DHT22;14477;51.038;4.588;2022-09-09T04:24:07;16.40;91.80
26909;DHT22;14477;51.038;4.588;2022-09-09T04:26:34;16.40;91.80
26909;DHT22;14477;51.038;4.588;2022-09-09T04:29:00;16.40;91.80
26909;DHT22;14477;51.038;4.588;2022-09-09T04:31:25;16.40;91.80
26909;DHT22;14477;51.038;4.588;2022-09-09T04:33:52;16.40;91.90
26909;DHT22;14477;51.038;4.588;2022-09-09T04:36:18;16.40;91.90
26909;DHT22;14477;51.038;4.588;2022-09-09T04:38:47;16.40;92.00
26909;DHT22;14477;51.038;4.588;2022-09-09T04:41:14;16.40;92.00
26909;DHT22;14477;51.038;4.588;2022-09-09T04:43:39;16.40;92.10
26909;DHT22;14477;51.038;4.588;2022-09-09T04:46:06;16.40;92.10
26909;DHT22;14477;51.038;4.588;2022-09-09T04:48:32;16.40;92.10
26909;DHT22;14477;51.038;4.588;2022-09-09T04:50:59;16.40;92.10
26909;DHT22;14477;51.038;4.588;2022-09-09T04:53:25;16.40;92.40
26909;DHT22;14477;51.038;4.588;2022-09-09T04:56:02;16.40;92.00
26909;DHT22;14477;51.038;4.588;2022-09-09T04:58:28;16.40;92.00
26909;DHT22;14477;51.038;4.588;2022-09-09T05:00:54;16.40;92.00
26909;DHT22;14477;51.038;4.588;2022-09-09T05:03:19;16.40;92.00
26909;DHT22;14477;51.038;4.588;2022-09-09T05:05:45;16.40;92.00
26909;DHT22;14477;51.038;4.588;2022-09-09T05:08:11;16.40;92.10
26909;DHT22;14477;51.038;4.588;2022-09-09T05:10:38;16.40;92.10
26909;DHT22;14477;51.038;4.588;2022-09-09T05:13:04;16.40;92.10
26909;DHT22;14477;51.038;4.588;2022-09-09T05:15:30;16.40;92.20
26909;DHT22;14477;51.038;4.588;2022-09-09T05:17:58;16.40;92.20
26909;DHT22;14477;51.038;4.588;2022-09-09T05:20:25;16.40;92.30
26909;DHT22;14477;51.038;4.588;2022-09-09T05:22:53;16.40;92.30
26909;DHT22;14477;51.038;4.588;2022-09-09T05:25:19;16.40;92.30
26909;DHT22;14477;51.038;4.588;2022-09-09T05:27:45;16.40;92.40
26909;DHT22;14477;51.038;4.588;2022-09-09T05:30:11;16.50;92.40
26909;DHT22;14477;51.038;4.588;2022-09-09T05:32:37;16.50;92.50
26909;DHT22;14477;51.038;4.588;2022-09-09T05:35:03;16.50;92.50
26909;DHT22;14477;51.038;4.588;2022-09-09T05:37:30;16.50;92.60
26909;DHT22;14477;51.038;4.588;2022-09-09T05:39:56;16.50;92.70
26909;DHT22;14477;51.038;4.588;2022-09-09T05:42:23;16.50;92.80
26909;DHT22;14477;51.038;4.588;2022-09-09T05:44:49;16.60;93.00
26909;DHT22;14477;51.038;4.588;2022-09-09T05:47:16;16.60;93.10
26909;DHT22;14477;51.038;4.588;2022-09-09T05:49:42;16.70;93.30
26909;DHT22;14477;51.038;4.588;2022-09-09T05:52:08;16.80;93.40
26909;DHT22;14477;51.038;4.588;2022-09-09T05:54:35;16.80;93.40
26909;DHT22;14477;51.038;4.588;2022-09-09T05:57:03;16.90;93.40
26909;DHT22;14477;51.038;4.588;2022-09-09T05:59:28;17.00;93.40
26909;DHT22;14477;51.038;4.588;2022-09-09T06:01:54;17.00;93.40
26909;DHT22;14477;51.038;4.588;2022-09-09T06:04:20;17.10;93.30
26909;DHT22;14477;51.038;4.588;2022-09-09T06:06:47;17.10;93.30
26909;DHT22;14477;51.038;4.588;2022-09-09T06:09:14;17.20;93.20
26909;DHT22;14477;51.038;4.588;2022-09-09T06:11:41;17.20;93.20
26909;DHT22;14477;51.038;4.588;2022-09-09T06:14:07;17.20;93.20
26909;DHT22;14477;51.038;4.588;2022-09-09T06:16:33;17.20;93.10
26909;DHT22;14477;51.038;4.588;2022-09-09T06:19:00;17.30;93.10
26909;DHT22;14477;51.038;4.588;2022-09-09T06:21:27;17.30;93.00
26909;DHT22;14477;51.038;4.588;2022-09-09T06:23:53;17.30;93.00
26909;DHT22;14477;51.038;4.588;2022-09-09T06:26:24;17.30;93.00
26909;DHT22;14477;51.038;4.588;2022-09-09T06:28:52;17.30;93.00
26909;DHT22;14477;51.038;4.588;2022-09-09T06:31:21;17.30;93.10
26909;DHT22;14477;51.038;4.588;2022-09-09T06:33:47;17.40;93.10
26909;DHT22;14477;51.038;4.588;2022-09-09T06:36:15;17.40;93.20
26909;DHT22;14477;51.038;4.588;2022-09-09T06:38:42;17.40;93.30
26909;DHT22;14477;51.038;4.588;2022-09-09T06:41:09;17.50;93.40
26909;DHT22;14477;51.038;4.588;2022-09-09T06:43:35;17.50;93.40
26909;DHT22;14477;51.038;4.588;2022-09-09T06:48:29;17.60;93.80
26909;DHT22;14477;51.038;4.588;2022-09-09T06:51:05;17.70;93.80
26909;DHT22;14477;51.038;4.588;2022-09-09T06:53:32;17.80;93.60
26909;DHT22;14477;51.038;4.588;2022-09-09T06:56:02;17.80;93.60
26909;DHT22;14477;51.038;4.588;2022-09-09T06:58:28;17.80;93.40
26909;DHT22;14477;51.038;4.588;2022-09-09T07:01:05;17.90;93.30
26909;DHT22;14477;51.038;4.588;2022-09-09T07:03:31;17.90;93.10
26909;DHT22;14477;51.038;4.588;2022-09-09T07:05:57;17.90;93.30
26909;DHT22;14477;51.038;4.588;2022-09-09T07:08:23;17.90;93.40
26909;DHT22;14477;51.038;4.588;2022-09-09T07:10:50;18.00;93.50
26909;DHT22;14477;51.038;4.588;2022-09-09T07:13:23;18.00;93.40
26909;DHT22;14477;51.038;4.588;2022-09-09T07:15:51;18.00;93.40
26909;DHT22;14477;51.038;4.588;2022-09-09T07:18:17;18.10;93.40
26909;DHT22;14477;51.038;4.588;2022-09-09T07:20:42;18.10;93.50
26909;DHT22;14477;51.038;4.588;2022-09-09T07:23:08;18.20;93.40
26909;DHT22;14477;51.038;4.588;2022-09-09T07:25:33;18.20;93.30
26909;DHT22;14477;51.038;4.588;2022-09-09T07:28:05;18.10;93.30
26909;DHT22;14477;51.038;4.588;2022-09-09T07:30:33;18.20;93.30
26909;DHT22;14477;51.038;4.588;2022-09-09T07:32:59;18.20;93.30
26909;DHT22;14477;51.038;4.588;2022-09-09T07:35:25;18.20;93.40
26909;DHT22;14477;51.038;4.588;2022-09-09T07:37:52;18.20;93.50
26909;DHT22;14477;51.038;4.588;2022-09-09T07:40:17;18.30;93.40
26909;DHT22;14477;51.038;4.588;2022-09-09T07:42:43;18.30;93.30
26909;DHT22;14477;51.038;4.588;2022-09-09T07:45:08;18.30;93.30
26909;DHT22;14477;51.038;4.588;2022-09-09T07:47:34;18.30;93.30
26909;DHT22;14477;51.038;4.588;2022-09-09T07:50:01;18.40;93.30
26909;DHT22;14477;51.038;4.588;2022-09-09T07:52:26;18.40;93.30
26909;DHT22;14477;51.038;4.588;2022-09-09T07:54:52;18.40;93.30
26909;DHT22;14477;51.038;4.588;2022-09-09T07:57:18;18.40;93.30
26909;DHT22;14477;51.038;4.588;2022-09-09T07:59:44;18.40;93.40
26909;DHT22;14477;51.038;4.588;2022-09-09T08:02:10;18.50;93.20
26909;DHT22;14477;51.038;4.588;2022-09-09T08:04:36;18.50;93.20
26909;DHT22;14477;51.038;4.588;2022-09-09T08:07:02;18.50;93.10
26909;DHT22;14477;51.038;4.588;2022-09-09T08:09:29;18.60;93.20
26909;DHT22;14477;51.038;4.588;2022-09-09T08:11:56;18.60;93.20
26909;DHT22;14477;51.038;4.588;2022-09-09T08:14:22;18.60;93.40
26909;DHT22;14477;51.038;4.588;2022-09-09T08:16:49;18.70;93.90
26909;DHT22;14477;51.038;4.588;2022-09-09T08:19:15;18.70;93.90
26909;DHT22;14477;51.038;4.588;2022-09-09T08:21:42;18.90;94.50
26909;DHT22;14477;51.038;4.588;2022-09-09T08:24:09;19.00;94.90
26909;DHT22;14477;51.038;4.588;2022-09-09T08:26:45;19.10;94.60
26909;DHT22;14477;51.038;4.588;2022-09-09T08:29:13;19.30;94.60
26909;DHT22;14477;51.038;4.588;2022-09-09T08:31:44;19.50;94.50
26909;DHT22;14477;51.038;4.588;2022-09-09T08:34:11;19.60;93.80
26909;DHT22;14477;51.038;4.588;2022-09-09T08:36:39;19.70;93.40
26909;DHT22;14477;51.038;4.588;2022-09-09T08:39:07;19.70;93.00
26909;DHT22;14477;51.038;4.588;2022-09-09T08:44:17;19.70;92.30
26909;DHT22;14477;51.038;4.588;2022-09-09T08:52:22;19.50;92.20
26909;DHT22;14477;51.038;4.588;2022-09-09T08:54:48;19.50;92.00
26909;DHT22;14477;51.038;4.588;2022-09-09T08:57:20;19.40;92.20
26909;DHT22;14477;51.038;4.588;2022-09-09T08:59:50;19.40;92.20
26909;DHT22;14477;51.038;4.588;2022-09-09T09:02:25;19.40;92.20
26909;DHT22;14477;51.038;4.588;2022-09-09T09:04:56;19.30;92.10
26909;DHT22;14477;51.038;4.588;2022-09-09T09:07:47;19.30;92.10
26909;DHT22;14477;51.038;4.588;2022-09-09T09:12:53;19.20;91.80
26909;DHT22;14477;51.038;4.588;2022-09-09T09:15:26;19.20;91.80
26909;DHT22;14477;51.038;4.588;2022-09-09T09:17:52;19.10;91.70
26909;DHT22;14477;51.038;4.588;2022-09-09T09:20:40;19.00;91.60
26909;DHT22;14477;51.038;4.588;2022-09-09T09:23:16;18.90;91.60
26909;DHT22;14477;51.038;4.588;2022-09-09T09:25:44;18.90;91.70
26909;DHT22;14477;51.038;4.588;2022-09-09T09:28:24;18.80;91.90
26909;DHT22;14477;51.038;4.588;2022-09-09T09:30:54;18.70;91.90
26909;DHT22;14477;51.038;4.588;2022-09-09T09:33:24;18.70;92.00
26909;DHT22;14477;51.038;4.588;2022-09-09T09:35:52;18.60;92.10
26909;DHT22;14477;51.038;4.588;2022-09-09T09:38:26;18.60;92.10
26909;DHT22;14477;51.038;4.588;2022-09-09T09:40:55;18.60;92.10
26909;DHT22;14477;51.038;4.588;2022-09-09T09:43:36;18.50;92.40
26909;DHT22;14477;51.038;4.588;2022-09-09T09:46:05;18.50;92.40
26909;DHT22;14477;51.038;4.588;2022-09-09T09:48:43;18.50;92.50
26909;DHT22;14477;51.038;4.588;2022-09-09T09:51:13;18.50;92.70
26909;DHT22;14477;51.038;4.588;2022-09-09T09:53:41;18.60;92.70
26909;DHT22;14477;51.038;4.588;2022-09-09T09:56:09;18.60;92.90
26909;DHT22;14477;51.038;4.588;2022-09-09T10:01:04;18.70;92.80
26909;DHT22;14477;51.038;4.588;2022-09-09T10:03:34;18.70;93.00
26909;DHT22;14477;51.038;4.588;2022-09-09T10:06:03;18.80;92.90
26909;DHT22;14477;51.038;4.588;2022-09-09T10:08:28;18.80;93.10
26909;DHT22;14477;51.038;4.588;2022-09-09T10:14:04;19.00;92.90
26909;DHT22;14477;51.038;4.588;2022-09-09T10:19:37;19.00;92.30
26909;DHT22;14477;51.038;4.588;2022-09-09T10:22:27;19.10;92.70
26909;DHT22;14477;51.038;4.588;2022-09-09T10:31:15;19.30;92.60
26909;DHT22;14477;51.038;4.588;2022-09-09T10:36:32;19.40;92.40
26909;DHT22;14477;51.038;4.588;2022-09-09T10:42:06;19.40;92.50
26909;DHT22;14477;51.038;4.588;2022-09-09T10:44:59;19.30;92.10
26909;DHT22;14477;51.038;4.588;2022-09-09T10:56:09;19.60;92.70
26909;DHT22;14477;51.038;4.588;2022-09-09T11:02:00;19.70;92.60
26909;DHT22;14477;51.038;4.588;2022-09-09T11:07:21;19.80;92.00
26909;DHT22;14477;51.038;4.588;2022-09-09T11:09:54;19.90;92.90
26909;DHT22;14477;51.038;4.588;2022-09-09T11:12:23;20.00;93.30
26909;DHT22;14477;51.038;4.588;2022-09-09T11:15:04;20.10;93.30
26909;DHT22;14477;51.038;4.588;2022-09-09T11:17:44;20.20;92.90
26909;DHT22;14477;51.038;4.588;2022-09-09T11:20:13;20.40;93.00
26909;DHT22;14477;51.038;4.588;2022-09-09T11:25:18;20.50;92.70
26909;DHT22;14477;51.038;4.588;2022-09-09T11:33:18;20.70;92.20
26909;DHT22;14477;51.038;4.588;2022-09-09T11:36:19;20.70;91.00
26909;DHT22;14477;51.038;4.588;2022-09-09T11:38:52;20.70;91.00
26909;DHT22;14477;51.038;4.588;2022-09-09T11:41:20;20.80;92.00
26909;DHT22;14477;51.038;4.588;2022-09-09T11:43:52;20.80;92.20
26909;DHT22;14477;51.038;4.588;2022-09-09T11:46:33;20.90;92.00
26909;DHT22;14477;51.038;4.588;2022-09-09T11:50:06;21.00;92.00
26909;DHT22;14477;51.038;4.588;2022-09-09T11:52:34;21.10;92.60
26909;DHT22;14477;51.038;4.588;2022-09-09T11:55:19;21.40;92.30
26909;DHT22;14477;51.038;4.588;2022-09-09T11:58:04;21.50;92.20
26909;DHT22;14477;51.038;4.588;2022-09-09T12:03:06;21.90;92.10
26909;DHT22;14477;51.038;4.588;2022-09-09T12:05:51;22.10;93.10
26909;DHT22;14477;51.038;4.588;2022-09-09T12:08:27;22.30;92.70
26909;DHT22;14477;51.038;4.588;2022-09-09T12:10:55;22.50;91.70
26909;DHT22;14477;51.038;4.588;2022-09-09T12:13:23;22.60;91.30
26909;DHT22;14477;51.038;4.588;2022-09-09T12:15:51;22.70;91.40
26909;DHT22;14477;51.038;4.588;2022-09-09T12:18:38;22.90;90.80
26909;DHT22;14477;51.038;4.588;2022-09-09T12:21:26;23.10;89.20
26909;DHT22;14477;51.038;4.588;2022-09-09T12:24:13;23.40;90.10
26909;DHT22;14477;51.038;4.588;2022-09-09T12:34:39;23.80;88.30
26909;DHT22;14477;51.038;4.588;2022-09-09T12:37:14;23.90;86.80
26909;DHT22;14477;51.038;4.588;2022-09-09T12:39:57;24.00;89.30
26909;DHT22;14477;51.038;4.588;2022-09-09T12:42:23;24.10;89.40
26909;DHT22;14477;51.038;4.588;2022-09-09T12:45:00;24.20;89.50
26909;DHT22;14477;51.038;4.588;2022-09-09T12:50:01;24.30;84.50
26909;DHT22;14477;51.038;4.588;2022-09-09T12:52:30;24.40;88.50
26909;DHT22;14477;51.038;4.588;2022-09-09T12:54:59;24.50;88.50
26909;DHT22;14477;51.038;4.588;2022-09-09T12:57:32;24.50;89.20
26909;DHT22;14477;51.038;4.588;2022-09-09T13:00:11;24.70;89.00
26909;DHT22;14477;51.038;4.588;2022-09-09T13:02:46;24.80;87.20
26909;DHT22;14477;51.038;4.588;2022-09-09T13:05:15;24.90;86.20
26909;DHT22;14477;51.038;4.588;2022-09-09T13:07:42;24.90;87.10
26909;DHT22;14477;51.038;4.588;2022-09-09T13:10:12;24.90;86.40
26909;DHT22;14477;51.038;4.588;2022-09-09T13:12:38;24.80;85.30
26909;DHT22;14477;51.038;4.588;2022-09-09T13:15:21;24.80;85.90
26909;DHT22;14477;51.038;4.588;2022-09-09T13:17:53;24.70;82.70
26909;DHT22;14477;51.038;4.588;2022-09-09T13:20:21;24.60;83.60
26909;DHT22;14477;51.038;4.588;2022-09-09T13:22:48;24.50;84.40
26909;DHT22;14477;51.038;4.588;2022-09-09T13:25:24;24.40;85.00
26909;DHT22;14477;51.038;4.588;2022-09-09T13:27:58;24.40;84.70
26909;DHT22;14477;51.038;4.588;2022-09-09T13:30:31;24.50;85.80
26909;DHT22;14477;51.038;4.588;2022-09-09T13:38:15;24.50;83.40
26909;DHT22;14477;51.038;4.588;2022-09-09T13:41:01;24.50;86.10
26909;DHT22;14477;51.038;4.588;2022-09-09T13:43:51;24.60;82.50
26909;DHT22;14477;51.038;4.588;2022-09-09T13:46:35;24.60;84.40
26909;DHT22;14477;51.038;4.588;2022-09-09T13:51:39;24.40;81.80
26909;DHT22;14477;51.038;4.588;2022-09-09T13:54:06;24.30;82.00
26909;DHT22;14477;51.038;4.588;2022-09-09T13:56:35;24.20;82.80
26909;DHT22;14477;51.038;4.588;2022-09-09T13:59:02;24.10;82.90
26909;DHT22;14477;51.038;4.588;2022-09-09T14:01:28;24.00;82.70
26909;DHT22;14477;51.038;4.588;2022-09-09T14:03:54;23.90;83.10
26909;DHT22;14477;51.038;4.588;2022-09-09T14:06:20;23.90;83.90
26909;DHT22;14477;51.038;4.588;2022-09-09T14:08:50;23.80;83.60
26909;DHT22;14477;51.038;4.588;2022-09-09T14:11:16;23.80;84.20
26909;DHT22;14477;51.038;4.588;2022-09-09T14:13:42;23.80;84.30
26909;DHT22;14477;51.038;4.588;2022-09-09T14:16:07;23.80;84.90
26909;DHT22;14477;51.038;4.588;2022-09-09T14:18:33;23.80;84.30
26909;DHT22;14477;51.038;4.588;2022-09-09T14:20:59;23.80;84.50
26909;DHT22;14477;51.038;4.588;2022-09-09T14:23:25;23.80;84.50
26909;DHT22;14477;51.038;4.588;2022-09-09T14:25:51;23.70;83.40
26909;DHT22;14477;51.038;4.588;2022-09-09T14:28:17;23.70;83.40
26909;DHT22;14477;51.038;4.588;2022-09-09T14:30:43;23.60;83.80
26909;DHT22;14477;51.038;4.588;2022-09-09T14:33:14;23.60;84.60
26909;DHT22;14477;51.038;4.588;2022-09-09T14:35:40;23.60;85.20
26909;DHT22;14477;51.038;4.588;2022-09-09T14:38:07;23.60;86.00
26909;DHT22;14477;51.038;4.588;2022-09-09T14:40:37;23.70;86.20
26909;DHT22;14477;51.038;4.588;2022-09-09T14:43:04;23.80;86.00
26909;DHT22;14477;51.038;4.588;2022-09-09T14:45:31;23.90;84.70
26909;DHT22;14477;51.038;4.588;2022-09-09T14:47:56;23.90;84.50
26909;DHT22;14477;51.038;4.588;2022-09-09T14:50:23;24.00;84.40
26909;DHT22;14477;51.038;4.588;2022-09-09T14:52:49;23.90;83.90
26909;DHT22;14477;51.038;4.588;2022-09-09T14:55:16;23.90;83.60
26909;DHT22;14477;51.038;4.588;2022-09-09T14:57:42;23.90;83.70
26909;DHT22;14477;51.038;4.588;2022-09-09T15:00:09;23.80;83.30
26909;DHT22;14477;51.038;4.588;2022-09-09T15:02:36;23.70;82.20
26909;DHT22;14477;51.038;4.588;2022-09-09T15:05:02;23.60;81.60
26909;DHT22;14477;51.038;4.588;2022-09-09T15:07:29;23.40;82.00
26909;DHT22;14477;51.038;4.588;2022-09-09T15:09:57;23.30;82.00
26909;DHT22;14477;51.038;4.588;2022-09-09T15:12:24;23.20;82.50
26909;DHT22;14477;51.038;4.588;2022-09-09T15:14:49;23.00;82.50
26909;DHT22;14477;51.038;4.588;2022-09-09T15:17:16;22.90;82.70
26909;DHT22;14477;51.038;4.588;2022-09-09T15:19:42;22.90;83.40
26909;DHT22;14477;51.038;4.588;2022-09-09T15:22:08;22.80;84.20
26909;DHT22;14477;51.038;4.588;2022-09-09T15:24:35;22.80;84.50
26909;DHT22;14477;51.038;4.588;2022-09-09T15:27:01;22.80;84.30
26909;DHT22;14477;51.038;4.588;2022-09-09T15:29:27;22.80;84.80
26909;DHT22;14477;51.038;4.588;2022-09-09T15:31:56;22.70;85.40
26909;DHT22;14477;51.038;4.588;2022-09-09T15:34:22;22.70;84.80
26909;DHT22;14477;51.038;4.588;2022-09-09T15:36:48;22.70;84.90
26909;DHT22;14477;51.038;4.588;2022-09-09T15:39:15;22.80;84.40
26909;DHT22;14477;51.038;4.588;2022-09-09T15:41:43;22.80;83.90
26909;DHT22;14477;51.038;4.588;2022-09-09T15:44:09;22.70;83.60
26909;DHT22;14477;51.038;4.588;2022-09-09T15:46:45;22.60;83.40
26909;DHT22;14477;51.038;4.588;2022-09-09T15:51:42;22.50;82.60
26909;DHT22;14477;51.038;4.588;2022-09-09T15:54:08;22.30;82.00
26909;DHT22;14477;51.038;4.588;2022-09-09T15:56:34;22.10;82.10
26909;DHT22;14477;51.038;4.588;2022-09-09T15:59:01;22.00;82.70
26909;DHT22;14477;51.038;4.588;2022-09-09T16:01:28;21.80;83.00
26909;DHT22;14477;51.038;4.588;2022-09-09T16:03:54;21.70;83.40
26909;DHT22;14477;51.038;4.588;2022-09-09T16:06:22;21.50;83.00
26909;DHT22;14477;51.038;4.588;2022-09-09T16:08:50;21.30;82.40
26909;DHT22;14477;51.038;4.588;2022-09-09T16:11:19;21.00;80.70
26909;DHT22;14477;51.038;4.588;2022-09-09T16:13:46;20.70;82.30
26909;DHT22;14477;51.038;4.588;2022-09-09T16:16:13;20.40;84.10
26909;DHT22;14477;51.038;4.588;2022-09-09T16:18:45;20.20;85.80
26909;DHT22;14477;51.038;4.588;2022-09-09T16:21:17;20.00;87.40
26909;DHT22;14477;51.038;4.588;2022-09-09T16:23:43;20.00;88.70
26909;DHT22;14477;51.038;4.588;2022-09-09T16:26:13;19.90;89.50
26909;DHT22;14477;51.038;4.588;2022-09-09T16:28:40;20.00;90.00
26909;DHT22;14477;51.038;4.588;2022-09-09T16:31:07;20.00;90.20
26909;DHT22;14477;51.038;4.588;2022-09-09T16:33:32;20.00;90.40
26909;DHT22;14477;51.038;4.588;2022-09-09T16:36:04;20.00;90.40
26909;DHT22;14477;51.038;4.588;2022-09-09T16:38:29;20.00;90.60
26909;DHT22;14477;51.038;4.588;2022-09-09T16:40:59;20.00;90.60
26909;DHT22;14477;51.038;4.588;2022-09-09T16:43:24;19.90;90.80
26909;DHT22;14477;51.038;4.588;2022-09-09T16:45:50;20.00;91.00
26909;DHT22;14477;51.038;4.588;2022-09-09T16:48:16;20.00;91.20
26909;DHT22;14477;51.038;4.588;2022-09-09T16:50:41;20.00;91.30
26909;DHT22;14477;51.038;4.588;2022-09-09T16:53:07;20.00;91.50
26909;DHT22;14477;51.038;4.588;2022-09-09T16:55:39;20.00;91.50
26909;DHT22;14477;51.038;4.588;2022-09-09T16:58:05;20.00;91.60
26909;DHT22;14477;51.038;4.588;2022-09-09T17:00:30;20.10;91.70
26909;DHT22;14477;51.038;4.588;2022-09-09T17:02:56;20.10;91.80
26909;DHT22;14477;51.038;4.588;2022-09-09T17:05:23;20.10;91.90
26909;DHT22;14477;51.038;4.588;2022-09-09T17:07:48;20.10;91.90
26909;DHT22;14477;51.038;4.588;2022-09-09T17:10:14;20.20;92.00
26909;DHT22;14477;51.038;4.588;2022-09-09T17:12:40;20.10;92.10
26909;DHT22;14477;51.038;4.588;2022-09-09T17:15:07;20.20;92.20
26909;DHT22;14477;51.038;4.588;2022-09-09T17:17:32;20.20;92.10
26909;DHT22;14477;51.038;4.588;2022-09-09T17:19:58;20.20;92.20
26909;DHT22;14477;51.038;4.588;2022-09-09T17:22:24;20.20;92.10
26909;DHT22;14477;51.038;4.588;2022-09-09T17:24:52;20.20;92.00
26909;DHT22;14477;51.038;4.588;2022-09-09T17:27:17;20.20;92.00
26909;DHT22;14477;51.038;4.588;2022-09-09T17:29:43;20.20;91.90
26909;DHT22;14477;51.038;4.588;2022-09-09T17:32:09;20.20;91.80
26909;DHT22;14477;51.038;4.588;2022-09-09T17:34:35;20.20;91.70
26909;DHT22;14477;51.038;4.588;2022-09-09T17:37:00;20.10;91.60
26909;DHT22;14477;51.038;4.588;2022-09-09T17:39:27;20.10;91.40
26909;DHT22;14477;51.038;4.588;2022-09-09T17:41:53;20.10;91.40
26909;DHT22;14477;51.038;4.588;2022-09-09T17:44:20;20.10;91.50
26909;DHT22;14477;51.038;4.588;2022-09-09T17:46:45;20.00;91.60